Time;durP1;ratioP1;P1;durP2;ratioP2;P2;SDS_P1;SDS_P2;PMS_P1;PMS_P2;Temp;Humidity;BMP_temperature;BMP_pressure;BME280_temperature;BME280_humidity;BME280_pressure;Samples;Min_cycle;Max_cycle;Signal;HPM_P1;HPM_P2
2023/01/22 00:01:28;;;;;;;16.40;5.77;;;2.80;99.90;;;;;;4922025;28;20280;-86
2023/01/22 00:03:54;;;;;;;16.23;5.70;;;2.80;99.90;;;;;;4908664;28;20079;-86
2023/01/22 00:06:20;;;;;;;14.77;5.57;;;2.80;99.90;;;;;;4897195;28;20056;-86
2023/01/22 00:08:47;;;;;;;18.30;6.50;;;2.80;99.90;;;;;;4919660;28;20161;-85
2023/01/22 00:11:14;;;;;;;16.50;6.30;;;2.80;99.90;;;;;;4936565;28;20046;-85
2023/01/22 00:13:40;;;;;;;16.52;5.93;;;2.80;99.90;;;;;;4923545;28;20589;-86
2023/01/22 00:16:07;;;;;;;15.10;4.93;;;2.70;99.90;;;;;;4915818;28;20061;-86
2023/01/22 00:18:33;;;;;;;17.77;6.40;;;2.70;99.90;;;;;;4917515;28;20661;-86
2023/01/22 00:20:59;;;;;;;18.73;6.03;;;2.80;99.90;;;;;;4905642;28;20066;-85
2023/01/22 00:23:25;;;;;;;17.58;6.35;;;2.70;99.90;;;;;;4899870;28;20031;-85
2023/01/22 00:26:06;;;;;;;18.15;5.90;;;2.70;99.90;;;;;;4943735;28;20030;-86
2023/01/22 00:28:32;;;;;;;18.33;6.53;;;2.70;99.90;;;;;;4937453;28;20248;-86
2023/01/22 00:31:02;;;;;;;16.90;6.47;;;2.70;99.90;;;;;;4938254;28;20181;-86
2023/01/22 00:33:28;;;;;;;19.48;6.63;;;2.70;99.90;;;;;;4942933;28;20283;-86
2023/01/22 00:35:54;;;;;;;18.42;5.82;;;2.70;99.90;;;;;;4917121;28;20047;-86
2023/01/22 00:38:20;;;;;;;14.68;5.90;;;2.70;99.90;;;;;;4911980;28;20042;-86
2023/01/22 00:40:46;;;;;;;18.20;5.97;;;2.70;99.90;;;;;;4923626;28;20041;-86
2023/01/22 00:43:11;;;;;;;16.25;6.28;;;2.60;99.90;;;;;;4906201;28;20074;-86
2023/01/22 00:45:37;;;;;;;18.10;5.70;;;2.60;99.90;;;;;;4922342;28;20513;-86
2023/01/22 00:48:03;;;;;;;18.30;5.97;;;2.70;99.90;;;;;;4940412;28;20455;-86
2023/01/22 00:50:28;;;;;;;14.65;5.40;;;2.70;99.90;;;;;;4926423;28;20057;-87
2023/01/22 00:52:54;;;;;;;16.13;5.57;;;2.70;99.90;;;;;;4940806;28;20065;-86
2023/01/22 00:55:20;;;;;;;16.58;5.50;;;2.60;99.90;;;;;;4894507;28;20069;-86
2023/01/22 00:57:45;;;;;;;16.80;5.93;;;2.70;99.90;;;;;;4926658;28;20152;-86
2023/01/22 01:00:13;;;;;;;13.47;5.10;;;2.60;99.90;;;;;;4916014;28;20054;-86
2023/01/22 01:05:24;;;;;;;17.17;6.03;;;2.60;99.90;;;;;;4938084;28;20227;-86
2023/01/22 01:07:50;;;;;;;16.38;5.65;;;2.50;99.90;;;;;;4947385;28;20043;-85
2023/01/22 01:10:16;;;;;;;15.77;5.97;;;2.50;99.90;;;;;;4901036;28;20129;-86
2023/01/22 01:12:42;;;;;;;17.02;5.68;;;2.50;99.90;;;;;;4917995;28;20486;-84
2023/01/22 01:15:24;;;;;;;17.00;5.70;;;2.50;99.90;;;;;;4918078;28;20138;-86
2023/01/22 01:17:49;;;;;;;18.77;6.32;;;2.50;99.90;;;;;;4936136;28;20145;-86
2023/01/22 01:20:15;;;;;;;17.07;6.00;;;2.50;99.90;;;;;;4918008;28;20420;-86
2023/01/22 01:22:41;;;;;;;14.83;5.67;;;2.40;99.90;;;;;;4940425;28;20054;-86
2023/01/22 01:25:07;;;;;;;18.23;6.50;;;2.50;99.90;;;;;;4924177;28;20294;-86
2023/01/22 01:27:32;;;;;;;17.07;6.03;;;2.50;99.90;;;;;;4952012;28;20103;-86
2023/01/22 01:29:58;;;;;;;14.40;5.55;;;2.40;99.90;;;;;;4912702;28;20121;-85
2023/01/22 01:32:24;;;;;;;16.33;5.60;;;2.50;99.90;;;;;;4932832;28;20249;-85
2023/01/22 01:34:50;;;;;;;14.65;5.05;;;2.40;99.90;;;;;;4936191;28;20262;-85
2023/01/22 01:37:16;;;;;;;16.85;5.82;;;2.50;99.90;;;;;;4913509;28;20399;-86
2023/01/22 01:39:41;;;;;;;18.07;6.10;;;2.50;99.90;;;;;;4914430;28;20074;-85
2023/01/22 01:42:08;;;;;;;20.33;7.15;;;2.50;99.90;;;;;;4937259;28;20141;-86
2023/01/22 01:44:35;;;;;;;17.73;5.88;;;2.50;99.90;;;;;;4913777;28;20019;-85
2023/01/22 01:47:05;;;;;;;15.60;5.73;;;2.50;99.90;;;;;;4945873;28;20042;-85
2023/01/22 01:49:45;;;;;;;15.43;5.85;;;2.50;99.90;;;;;;4901248;28;20030;-86
2023/01/22 01:52:12;;;;;;;17.20;5.30;;;2.60;99.90;;;;;;4940243;28;20142;-86
2023/01/22 01:54:41;;;;;;;14.77;5.50;;;2.60;99.90;;;;;;4938687;28;20027;-85
2023/01/22 01:57:21;;;;;;;16.98;5.72;;;2.60;99.90;;;;;;4893573;28;20035;-86
2023/01/22 01:59:48;;;;;;;17.37;5.47;;;2.60;99.90;;;;;;4909993;28;20027;-86
2023/01/22 02:02:15;;;;;;;15.45;5.47;;;2.60;99.90;;;;;;4927269;28;20030;-85
2023/01/22 02:04:41;;;;;;;18.48;7.00;;;2.70;99.90;;;;;;4944081;28;20118;-86
2023/01/22 02:07:06;;;;;;;15.23;5.57;;;2.70;99.90;;;;;;4906732;28;21589;-86
2023/01/22 02:09:32;;;;;;;17.02;5.85;;;2.70;99.90;;;;;;4913470;28;20027;-86
2023/01/22 02:11:58;;;;;;;13.07;5.28;;;2.70;99.90;;;;;;4905980;28;20034;-86
2023/01/22 02:14:31;;;;;;;17.40;5.77;;;2.70;99.90;;;;;;4916732;28;20114;-86
2023/01/22 02:17:11;;;;;;;14.15;5.65;;;2.80;99.90;;;;;;4905290;28;20419;-86
2023/01/22 02:19:38;;;;;;;14.77;5.78;;;2.80;99.90;;;;;;4930313;28;20038;-86
2023/01/22 02:22:25;;;;;;;17.67;6.68;;;2.80;99.90;;;;;;4929178;28;20694;-86
2023/01/22 02:24:51;;;;;;;15.00;6.35;;;2.80;99.90;;;;;;4914955;28;20271;-86
2023/01/22 02:27:17;;;;;;;15.63;5.70;;;2.80;99.90;;;;;;4893919;28;20122;-86
2023/01/22 02:29:43;;;;;;;15.95;5.68;;;2.80;99.90;;;;;;4917958;28;20032;-86
2023/01/22 02:32:09;;;;;;;18.10;6.30;;;2.90;99.90;;;;;;4921404;28;20284;-86
2023/01/22 02:34:34;;;;;;;14.43;5.55;;;2.90;99.90;;;;;;4940220;28;21311;-86
2023/01/22 02:37:00;;;;;;;16.57;6.17;;;2.90;99.90;;;;;;4923226;28;20398;-86
2023/01/22 02:39:26;;;;;;;16.10;6.03;;;2.90;99.90;;;;;;4918418;28;20023;-86
2023/01/22 02:41:51;;;;;;;18.93;6.60;;;2.90;99.90;;;;;;4912177;28;20261;-87
2023/01/22 02:44:17;;;;;;;15.88;6.25;;;2.90;99.90;;;;;;4899070;28;20078;-86
2023/01/22 02:46:43;;;;;;;14.97;5.67;;;2.90;99.90;;;;;;4947597;28;20391;-85
2023/01/22 02:49:09;;;;;;;15.80;6.07;;;2.90;99.90;;;;;;4913799;28;20092;-85
2023/01/22 02:51:34;;;;;;;15.10;6.47;;;2.90;99.90;;;;;;4940997;28;20722;-85
2023/01/22 02:54:00;;;;;;;16.13;5.63;;;2.90;99.90;;;;;;4909896;28;20584;-86
2023/01/22 02:56:26;;;;;;;18.63;6.80;;;2.90;99.90;;;;;;4916127;28;20038;-85
2023/01/22 02:58:52;;;;;;;17.87;6.27;;;2.90;99.90;;;;;;4890347;28;20204;-86
2023/01/22 03:01:23;;;;;;;16.95;6.70;;;2.90;99.90;;;;;;4928134;28;20597;-85
2023/01/22 03:03:50;;;;;;;15.85;5.53;;;2.90;99.90;;;;;;4919747;28;20035;-86
2023/01/22 03:06:20;;;;;;;17.20;6.55;;;2.90;99.90;;;;;;4945496;28;20101;-86
2023/01/22 03:08:47;;;;;;;16.63;6.17;;;2.90;99.90;;;;;;4944505;28;20510;-85
2023/01/22 03:11:13;;;;;;;15.68;5.97;;;2.90;99.90;;;;;;4925818;28;20391;-85
2023/01/22 03:21:52;;;;;;;17.40;6.45;;;2.90;99.90;;;;;;4939048;28;20043;-85
2023/01/22 03:24:18;;;;;;;16.17;6.05;;;2.90;99.90;;;;;;4926581;28;20031;-86
2023/01/22 03:26:43;;;;;;;18.03;6.40;;;2.80;99.90;;;;;;4910657;28;20027;-86
2023/01/22 03:29:09;;;;;;;14.55;5.75;;;2.80;99.90;;;;;;4918990;28;20667;-86
2023/01/22 03:31:35;;;;;;;14.70;5.97;;;2.80;99.90;;;;;;4912981;28;20503;-86
2023/01/22 03:34:01;;;;;;;14.68;5.35;;;2.80;99.90;;;;;;4904012;28;20589;-86
2023/01/22 03:36:27;;;;;;;15.65;6.00;;;2.80;99.90;;;;;;4926705;28;20671;-86
2023/01/22 03:38:53;;;;;;;16.77;6.13;;;2.80;99.90;;;;;;4949578;28;20121;-86
2023/01/22 03:41:19;;;;;;;16.13;5.77;;;2.80;99.90;;;;;;4920651;28;20074;-86
2023/01/22 03:43:45;;;;;;;15.93;5.90;;;2.70;99.90;;;;;;4909854;28;20051;-86
2023/01/22 03:46:17;;;;;;;14.18;5.40;;;2.70;99.90;;;;;;4894922;28;20666;-86
2023/01/22 03:48:43;;;;;;;16.58;6.60;;;2.70;99.90;;;;;;4904597;28;20527;-86
2023/01/22 03:51:14;;;;;;;14.47;5.93;;;2.70;99.90;;;;;;4944608;28;20814;-86
2023/01/22 03:53:41;;;;;;;16.45;5.60;;;2.70;99.90;;;;;;4932847;28;20065;-86
2023/01/22 03:56:10;;;;;;;15.18;5.47;;;2.60;99.90;;;;;;4920441;28;20233;-86
2023/01/22 03:58:37;;;;;;;17.25;5.88;;;2.60;99.90;;;;;;4926385;28;20023;-86
2023/01/22 04:01:06;;;;;;;13.60;5.20;;;2.50;99.90;;;;;;4886299;28;20031;-86
2023/01/22 04:03:32;;;;;;;15.40;5.70;;;2.50;99.90;;;;;;4935872;28;20019;-86
2023/01/22 04:06:01;;;;;;;13.68;5.55;;;2.40;99.90;;;;;;4920289;28;20252;-86
2023/01/22 04:08:29;;;;;;;16.02;6.25;;;2.40;99.90;;;;;;4931941;28;20023;-86
2023/01/22 04:10:55;;;;;;;18.13;6.03;;;2.40;99.90;;;;;;4929324;28;20123;-86
2023/01/22 04:13:22;;;;;;;13.55;5.35;;;2.30;99.90;;;;;;4929287;28;20031;-86
2023/01/22 04:15:48;;;;;;;14.93;5.87;;;2.20;99.90;;;;;;4925678;28;20019;-86
2023/01/22 04:18:14;;;;;;;14.70;5.65;;;2.20;99.90;;;;;;4914854;28;20077;-86
2023/01/22 04:20:40;;;;;;;15.27;5.50;;;2.20;99.90;;;;;;4911306;28;20074;-86
2023/01/22 04:23:06;;;;;;;16.90;5.80;;;2.10;99.90;;;;;;4919294;28;20101;-86
2023/01/22 04:25:32;;;;;;;15.93;5.95;;;2.10;99.90;;;;;;4937917;28;20039;-86
2023/01/22 04:27:58;;;;;;;13.43;5.38;;;2.00;99.90;;;;;;4943709;28;20262;-85
2023/01/22 04:30:24;;;;;;;16.03;6.00;;;2.00;99.90;;;;;;4930402;28;20141;-85
2023/01/22 04:32:50;;;;;;;13.10;5.23;;;2.00;99.90;;;;;;4897662;28;20365;-86
2023/01/22 04:35:16;;;;;;;14.25;5.45;;;2.00;99.90;;;;;;4929379;28;20442;-86
2023/01/22 04:37:42;;;;;;;16.95;5.82;;;2.00;99.90;;;;;;4938745;28;20469;-86
2023/01/22 04:40:09;;;;;;;16.77;6.20;;;2.00;99.90;;;;;;4917615;28;20624;-86
2023/01/22 04:42:35;;;;;;;17.08;5.72;;;2.00;99.90;;;;;;4916925;28;20738;-86
2023/01/22 04:45:01;;;;;;;14.75;5.70;;;2.00;99.90;;;;;;4910303;28;20082;-86
2023/01/22 04:47:27;;;;;;;15.13;5.65;;;2.10;99.90;;;;;;4930340;28;20303;-86
2023/01/22 04:49:53;;;;;;;16.40;6.10;;;2.10;99.90;;;;;;4898212;28;20704;-86
2023/01/22 04:52:19;;;;;;;15.77;6.03;;;2.20;99.90;;;;;;4904418;28;20137;-86
2023/01/22 04:54:44;;;;;;;16.00;6.50;;;2.10;99.90;;;;;;4939682;28;20027;-86
2023/01/22 04:57:10;;;;;;;17.20;6.43;;;2.20;99.90;;;;;;4909231;28;20150;-86
2023/01/22 04:59:36;;;;;;;16.88;6.22;;;2.20;99.90;;;;;;4945937;28;20062;-86
2023/01/22 05:02:03;;;;;;;15.38;6.22;;;2.30;99.90;;;;;;4909534;28;20110;-86
2023/01/22 05:04:28;;;;;;;13.55;5.78;;;2.30;99.90;;;;;;4911100;28;21376;-86
2023/01/22 05:06:54;;;;;;;14.03;5.67;;;2.30;99.90;;;;;;4921547;28;20035;-86
2023/01/22 05:09:20;;;;;;;15.95;5.70;;;2.40;99.90;;;;;;4932831;28;20269;-86
2023/01/22 05:11:46;;;;;;;16.30;6.38;;;2.40;99.90;;;;;;4935180;28;20840;-86
2023/01/22 05:14:12;;;;;;;12.67;5.47;;;2.40;99.90;;;;;;4909612;28;20030;-86
2023/01/22 05:16:38;;;;;;;14.00;5.32;;;2.50;99.90;;;;;;4933003;28;20019;-86
2023/01/22 05:19:04;;;;;;;13.25;5.78;;;2.50;99.90;;;;;;4903934;28;20031;-86
2023/01/22 05:21:29;;;;;;;13.83;5.97;;;2.50;99.90;;;;;;4911696;28;20305;-86
2023/01/22 05:23:55;;;;;;;15.35;6.53;;;2.60;99.90;;;;;;4908218;28;20387;-86
2023/01/22 05:26:21;;;;;;;15.73;6.67;;;2.60;99.90;;;;;;4932200;28;20506;-85
2023/01/22 05:28:46;;;;;;;15.00;6.22;;;2.60;99.90;;;;;;4917965;28;20249;-86
2023/01/22 05:31:12;;;;;;;14.97;6.77;;;2.60;99.90;;;;;;4936253;28;20906;-86
2023/01/22 05:33:39;;;;;;;12.90;5.90;;;2.60;99.90;;;;;;4941394;28;20511;-85
2023/01/22 05:36:06;;;;;;;15.38;6.47;;;2.60;99.90;;;;;;4900631;28;20252;-85
2023/01/22 05:38:32;;;;;;;12.27;5.40;;;2.70;99.90;;;;;;4916216;28;20549;-86
2023/01/22 05:40:58;;;;;;;10.35;4.63;;;2.70;99.90;;;;;;4911332;28;20030;-84
2023/01/22 05:43:24;;;;;;;12.52;6.10;;;2.70;99.90;;;;;;4943546;28;20035;-84
2023/01/22 05:45:50;;;;;;;14.82;6.70;;;2.70;99.90;;;;;;4914473;28;20517;-85
2023/01/22 05:48:16;;;;;;;14.13;6.13;;;2.70;99.90;;;;;;4902970;28;20077;-85
2023/01/22 05:50:41;;;;;;;12.82;5.70;;;2.60;99.90;;;;;;4895645;28;20027;-84
2023/01/22 05:53:07;;;;;;;14.03;5.87;;;2.60;99.90;;;;;;4915866;28;20082;-85
2023/01/22 05:55:34;;;;;;;10.82;5.40;;;2.70;99.90;;;;;;4909672;28;20054;-84
2023/01/22 05:58:00;;;;;;;11.30;5.38;;;2.70;99.90;;;;;;4930103;28;20037;-85
2023/01/22 06:00:27;;;;;;;13.07;5.80;;;2.70;99.90;;;;;;4932404;28;20093;-85
2023/01/22 06:02:59;;;;;;;13.82;6.07;;;2.60;99.90;;;;;;4919708;28;20038;-85
2023/01/22 06:05:26;;;;;;;13.23;6.05;;;2.60;99.90;;;;;;4951715;28;20027;-85
2023/01/22 06:07:52;;;;;;;11.77;5.40;;;2.50;99.90;;;;;;4886175;28;20633;-86
2023/01/22 06:10:18;;;;;;;14.07;6.97;;;2.50;99.90;;;;;;4926621;28;20026;-84
2023/01/22 06:12:44;;;;;;;11.30;5.25;;;2.40;99.90;;;;;;4932430;28;20031;-85
2023/01/22 06:15:10;;;;;;;11.90;5.53;;;2.40;99.90;;;;;;4938358;28;20077;-85
2023/01/22 06:17:36;;;;;;;12.10;5.45;;;2.40;99.90;;;;;;4908076;28;20443;-85
2023/01/22 06:20:03;;;;;;;14.10;6.10;;;2.40;99.90;;;;;;4917698;28;20657;-85
2023/01/22 06:22:29;;;;;;;13.50;5.93;;;2.40;99.90;;;;;;4914073;28;20038;-85
2023/01/22 06:24:55;;;;;;;12.80;5.07;;;2.40;99.90;;;;;;4939116;28;20635;-85
2023/01/22 06:27:21;;;;;;;13.30;5.33;;;2.40;99.90;;;;;;4911283;28;20035;-85
2023/01/22 06:29:46;;;;;;;12.57;5.60;;;2.50;99.90;;;;;;4934639;28;20533;-85
2023/01/22 06:32:12;;;;;;;11.77;5.80;;;2.50;99.90;;;;;;4917948;28;20492;-85
2023/01/22 06:34:38;;;;;;;13.53;6.47;;;2.50;99.90;;;;;;4938589;28;20506;-85
2023/01/22 06:37:05;;;;;;;13.95;6.10;;;2.50;99.90;;;;;;4895070;28;20038;-84
2023/01/22 06:39:30;;;;;;;14.23;6.25;;;2.50;99.90;;;;;;4900654;28;20442;-85
2023/01/22 06:41:56;;;;;;;11.60;5.67;;;2.50;99.90;;;;;;4938065;28;20039;-85
2023/01/22 06:44:22;;;;;;;11.60;5.45;;;2.50;99.90;;;;;;4921035;28;20011;-85
2023/01/22 06:46:47;;;;;;;12.17;6.10;;;2.50;99.90;;;;;;4928733;28;20229;-85
2023/01/22 06:49:14;;;;;;;11.93;5.60;;;2.50;99.90;;;;;;4903721;28;20057;-85
2023/01/22 06:51:40;;;;;;;12.20;5.72;;;2.50;99.90;;;;;;4922534;28;20077;-85
2023/01/22 06:54:06;;;;;;;12.07;5.53;;;2.60;99.90;;;;;;4934141;28;20023;-85
2023/01/22 06:56:32;;;;;;;11.65;5.38;;;2.50;99.90;;;;;;4948334;28;20030;-84
2023/01/22 06:58:58;;;;;;;11.95;5.60;;;2.60;99.90;;;;;;4909320;28;20244;-85
2023/01/22 07:01:24;;;;;;;12.07;6.13;;;2.60;99.90;;;;;;4933431;28;20062;-85
2023/01/22 07:03:51;;;;;;;12.10;5.97;;;2.60;99.90;;;;;;4916182;28;20146;-85
2023/01/22 07:06:17;;;;;;;13.02;5.55;;;2.60;99.90;;;;;;4923900;28;20033;-85
2023/01/22 07:08:43;;;;;;;14.32;6.30;;;2.60;99.90;;;;;;4893055;28;20093;-84
2023/01/22 07:11:10;;;;;;;13.32;5.78;;;2.60;99.90;;;;;;4935122;28;20066;-85
2023/01/22 07:13:36;;;;;;;15.30;6.80;;;2.60;99.90;;;;;;4892193;28;20705;-85
2023/01/22 07:16:03;;;;;;;12.10;5.77;;;2.60;99.90;;;;;;4936539;28;20031;-85
2023/01/22 07:18:29;;;;;;;11.60;5.57;;;2.60;99.90;;;;;;4937083;28;20043;-85
2023/01/22 07:21:02;;;;;;;11.75;5.40;;;2.60;99.90;;;;;;4942650;28;20073;-85
2023/01/22 07:23:29;;;;;;;10.35;5.13;;;2.70;99.90;;;;;;4889919;28;20027;-85
2023/01/22 07:25:54;;;;;;;11.80;5.03;;;2.60;99.90;;;;;;4917147;28;20039;-85
2023/01/22 07:28:20;;;;;;;11.53;5.30;;;2.60;99.90;;;;;;4928088;28;20569;-86
2023/01/22 07:30:46;;;;;;;11.52;5.20;;;2.70;99.90;;;;;;4955969;28;20050;-85
2023/01/22 07:33:13;;;;;;;12.80;5.68;;;2.70;99.90;;;;;;4940767;28;20035;-85
2023/01/22 07:35:39;;;;;;;10.67;5.00;;;2.70;99.90;;;;;;4908712;28;22557;-85
2023/01/22 07:38:06;;;;;;;12.85;6.40;;;2.70;99.90;;;;;;4901921;28;20577;-84
2023/01/22 07:40:32;;;;;;;12.38;5.80;;;2.70;99.90;;;;;;4898573;28;20914;-85
2023/01/22 07:42:58;;;;;;;11.77;5.95;;;2.80;99.90;;;;;;4939852;28;20093;-85
2023/01/22 07:45:24;;;;;;;14.13;6.60;;;2.70;99.90;;;;;;4924863;28;20130;-85
2023/01/22 07:47:58;;;;;;;12.77;5.75;;;2.70;99.90;;;;;;4923951;28;20097;-85
2023/01/22 07:50:27;;;;;;;12.63;6.03;;;2.70;99.90;;;;;;4926752;28;20027;-85
2023/01/22 07:52:53;;;;;;;12.63;6.40;;;2.70;99.90;;;;;;4884920;28;20034;-85
2023/01/22 07:55:19;;;;;;;11.73;5.57;;;2.70;99.90;;;;;;4922281;28;20041;-85
2023/01/22 07:57:45;;;;;;;12.33;6.00;;;2.70;99.90;;;;;;4898318;28;20391;-85
2023/01/22 08:00:14;;;;;;;11.82;5.82;;;2.70;99.90;;;;;;4917661;28;20068;-84
2023/01/22 08:02:41;;;;;;;11.23;4.95;;;2.70;99.90;;;;;;4919501;28;20185;-85
2023/01/22 08:05:07;;;;;;;10.63;4.80;;;2.70;99.90;;;;;;4926216;28;20062;-85
2023/01/22 08:07:34;;;;;;;9.68;5.07;;;2.70;99.90;;;;;;4930755;28;20019;-85
2023/01/22 08:09:59;;;;;;;10.73;5.25;;;2.80;99.90;;;;;;4909053;28;20502;-85
2023/01/22 08:12:25;;;;;;;9.83;4.70;;;2.80;99.90;;;;;;4892928;28;20023;-85
2023/01/22 08:14:51;;;;;;;11.03;5.60;;;2.80;99.90;;;;;;4913511;28;20313;-84
2023/01/22 08:17:17;;;;;;;10.52;5.15;;;2.80;99.90;;;;;;4938708;28;20168;-84
2023/01/22 08:19:42;;;;;;;9.73;4.37;;;2.80;99.90;;;;;;4933455;28;20025;-85
2023/01/22 08:22:08;;;;;;;9.35;4.82;;;2.80;99.90;;;;;;4907458;28;20142;-84
2023/01/22 08:24:34;;;;;;;12.43;5.10;;;2.80;99.90;;;;;;4900754;28;20963;-85
2023/01/22 08:27:00;;;;;;;8.82;4.43;;;2.80;99.90;;;;;;4911041;28;20022;-85
2023/01/22 08:29:26;;;;;;;10.93;4.43;;;2.80;99.90;;;;;;4924711;28;20444;-85
2023/01/22 08:31:52;;;;;;;9.63;4.90;;;2.80;99.90;;;;;;4910459;28;20449;-85
2023/01/22 08:34:19;;;;;;;9.65;4.72;;;2.80;99.90;;;;;;4904308;28;20253;-85
2023/01/22 08:36:45;;;;;;;9.02;4.20;;;2.80;99.90;;;;;;4918762;28;20534;-85
2023/01/22 08:39:12;;;;;;;11.40;5.50;;;2.80;99.90;;;;;;4915236;28;20285;-84
2023/01/22 08:41:38;;;;;;;9.25;4.38;;;2.80;99.90;;;;;;4935382;28;20059;-85
2023/01/22 08:44:04;;;;;;;10.30;4.97;;;2.80;99.90;;;;;;4907522;28;20034;-86
2023/01/22 08:46:30;;;;;;;9.35;4.82;;;2.90;99.90;;;;;;4924707;28;20022;-86
2023/01/22 08:48:56;;;;;;;11.30;4.73;;;2.90;99.90;;;;;;4929114;28;20081;-86
2023/01/22 08:51:23;;;;;;;9.82;4.50;;;2.90;99.90;;;;;;4920856;28;20955;-86
2023/01/22 08:53:50;;;;;;;11.15;4.97;;;2.90;99.90;;;;;;4915027;28;20027;-86
2023/01/22 08:56:16;;;;;;;9.00;4.63;;;3.00;99.90;;;;;;4896173;28;20133;-86
2023/01/22 08:58:41;;;;;;;8.80;4.57;;;3.00;99.90;;;;;;4906242;28;20077;-86
2023/01/22 09:01:17;;;;;;;9.00;4.30;;;3.00;99.90;;;;;;4931251;28;20353;-86
2023/01/22 09:03:43;;;;;;;9.55;4.60;;;3.00;99.90;;;;;;4918633;28;20745;-86
2023/01/22 09:06:09;;;;;;;9.67;4.40;;;3.00;99.90;;;;;;4927345;28;20038;-86
2023/01/22 09:08:35;;;;;;;9.88;4.35;;;3.10;99.90;;;;;;4930856;28;20023;-86
2023/01/22 09:11:03;;;;;;;9.45;4.30;;;3.10;99.90;;;;;;4893036;28;20060;-86
2023/01/22 09:13:29;;;;;;;10.40;4.78;;;3.10;99.90;;;;;;4919936;28;20039;-86
2023/01/22 09:15:56;;;;;;;9.43;4.30;;;3.20;99.90;;;;;;4924171;28;20034;-86
2023/01/22 09:18:22;;;;;;;9.82;4.55;;;3.20;99.90;;;;;;4908790;28;20276;-87
2023/01/22 09:20:48;;;;;;;11.27;5.13;;;3.20;99.90;;;;;;4932857;28;20692;-86
2023/01/22 09:23:13;;;;;;;8.90;4.33;;;3.20;99.90;;;;;;4919730;28;20410;-86
2023/01/22 09:25:39;;;;;;;10.38;4.72;;;3.20;99.90;;;;;;4890413;28;20586;-86
2023/01/22 09:28:07;;;;;;;10.57;5.00;;;3.20;99.90;;;;;;4928646;28;20030;-86
2023/01/22 09:30:34;;;;;;;11.35;5.25;;;3.20;99.90;;;;;;4937200;28;20224;-86
2023/01/22 09:32:59;;;;;;;9.77;4.65;;;3.30;99.90;;;;;;4902813;28;20035;-86
2023/01/22 09:35:26;;;;;;;10.10;4.53;;;3.30;99.90;;;;;;4933245;28;20023;-86
2023/01/22 09:37:52;;;;;;;11.10;5.03;;;3.20;99.90;;;;;;4913230;28;20034;-87
2023/01/22 09:40:26;;;;;;;11.23;5.32;;;3.30;99.90;;;;;;4884198;28;20329;-86
2023/01/22 09:43:03;;;;;;;9.93;4.30;;;3.30;99.90;;;;;;4932931;28;20730;-86
2023/01/22 09:45:32;;;;;;;9.52;4.53;;;3.30;99.90;;;;;;4901367;28;20026;-87
2023/01/22 09:48:01;;;;;;;10.53;4.70;;;3.30;99.90;;;;;;4932280;28;20350;-87
2023/01/22 09:50:31;;;;;;;10.48;4.70;;;3.30;99.90;;;;;;4908642;28;20026;-86
2023/01/22 09:53:01;;;;;;;8.98;4.13;;;3.30;99.90;;;;;;4915281;28;20022;-87
2023/01/22 09:55:30;;;;;;;9.50;4.50;;;3.40;99.90;;;;;;4898476;28;20030;-87
2023/01/22 09:58:00;;;;;;;9.48;4.32;;;3.40;99.90;;;;;;4916937;28;20246;-86
2023/01/22 10:00:38;;;;;;;9.37;4.83;;;3.40;99.90;;;;;;4950060;28;20038;-86
2023/01/22 10:03:17;;;;;;;7.45;3.75;;;3.40;99.90;;;;;;4924862;28;20501;-86
2023/01/22 10:06:08;;;;;;;8.43;4.28;;;3.40;99.90;;;;;;4924697;28;20121;-87
2023/01/22 10:08:46;;;;;;;10.38;4.10;;;3.40;99.90;;;;;;4919907;28;20543;-87
2023/01/22 10:11:12;;;;;;;7.85;3.65;;;3.40;99.90;;;;;;4903280;28;20029;-86
2023/01/22 10:13:39;;;;;;;9.17;4.43;;;3.40;99.90;;;;;;4918331;28;20023;-87
2023/01/22 10:16:05;;;;;;;8.60;4.13;;;3.40;99.90;;;;;;4908050;28;20222;-87
2023/01/22 10:18:39;;;;;;;9.45;4.50;;;3.40;99.90;;;;;;4921872;28;20500;-87
2023/01/22 10:21:20;;;;;;;8.48;4.13;;;3.40;99.90;;;;;;4917408;28;20415;-86
2023/01/22 10:23:48;;;;;;;7.43;3.60;;;3.40;99.90;;;;;;4935497;28;20031;-86
2023/01/22 10:26:24;;;;;;;7.53;3.93;;;3.40;99.90;;;;;;4933410;28;20038;-87
2023/01/22 10:28:54;;;;;;;7.70;3.55;;;3.50;99.90;;;;;;4905093;28;20518;-87
2023/01/22 10:31:33;;;;;;;7.93;3.80;;;3.40;99.90;;;;;;4916244;28;20030;-87
2023/01/22 10:34:15;;;;;;;7.22;3.47;;;3.50;99.90;;;;;;4930178;28;20341;-87
2023/01/22 10:36:48;;;;;;;9.05;4.25;;;3.50;99.90;;;;;;4911582;28;20303;-86
2023/01/22 10:39:16;;;;;;;8.40;3.90;;;3.50;99.90;;;;;;4939782;28;20410;-86
2023/01/22 10:41:43;;;;;;;7.65;3.67;;;3.50;99.90;;;;;;4921961;28;20455;-87
2023/01/22 10:44:15;;;;;;;8.13;3.90;;;3.50;99.90;;;;;;4911779;28;20033;-87
2023/01/22 10:46:41;;;;;;;8.90;4.20;;;3.50;99.90;;;;;;4912264;28;20749;-87
2023/01/22 10:49:25;;;;;;;7.97;3.97;;;3.50;99.90;;;;;;4916265;28;20514;-87
2023/01/22 10:51:56;;;;;;;8.37;3.67;;;3.50;99.90;;;;;;4894707;28;20105;-86
2023/01/22 10:54:25;;;;;;;8.30;3.65;;;3.60;99.90;;;;;;4942607;28;22049;-87
2023/01/22 10:57:01;;;;;;;8.13;3.75;;;3.50;99.90;;;;;;4903027;28;20031;-87
2023/01/22 10:59:29;;;;;;;8.00;3.58;;;3.60;99.90;;;;;;4922414;28;20598;-86
2023/01/22 11:02:01;;;;;;;10.30;4.78;;;3.60;99.90;;;;;;4941863;28;20027;-87
2023/01/22 11:04:32;;;;;;;8.93;4.20;;;3.60;99.90;;;;;;4910352;28;20399;-86
2023/01/22 11:07:19;;;;;;;10.30;4.38;;;3.70;99.90;;;;;;4912953;28;20667;-87
2023/01/22 11:09:58;;;;;;;8.32;4.20;;;3.60;99.90;;;;;;4927071;28;20039;-86
2023/01/22 11:12:47;;;;;;;9.40;4.32;;;3.60;99.90;;;;;;4910037;28;20039;-87
2023/01/22 11:15:24;;;;;;;8.65;4.00;;;3.60;99.90;;;;;;4918802;28;20031;-86
2023/01/22 11:17:53;;;;;;;9.00;4.17;;;3.60;99.90;;;;;;4932457;28;20423;-86
2023/01/22 11:20:37;;;;;;;9.68;4.32;;;3.60;99.90;;;;;;4938280;28;20383;-86
2023/01/22 11:23:08;;;;;;;8.60;3.97;;;3.60;99.90;;;;;;4928522;28;20126;-87
2023/01/22 11:25:43;;;;;;;9.73;4.10;;;3.70;99.90;;;;;;4926219;28;20035;-88
2023/01/22 11:28:23;;;;;;;8.57;4.13;;;3.60;99.90;;;;;;4918540;28;20503;-87
2023/01/22 11:31:35;;;;;;;8.00;3.53;;;3.60;99.90;;;;;;4947568;28;20027;-87
2023/01/22 11:34:22;;;;;;;10.18;4.18;;;3.70;99.90;;;;;;4876216;28;20146;-87
2023/01/22 11:37:09;;;;;;;8.90;4.10;;;3.70;99.90;;;;;;4930226;28;20233;-87
2023/01/22 11:39:47;;;;;;;9.05;4.40;;;3.70;99.90;;;;;;4892770;28;20027;-87
2023/01/22 11:42:37;;;;;;;8.07;4.13;;;3.70;99.90;;;;;;4922977;28;20075;-87
2023/01/22 11:45:21;;;;;;;8.87;4.10;;;3.70;99.90;;;;;;4901062;28;20599;-87
2023/01/22 11:48:17;;;;;;;9.07;4.28;;;3.70;99.90;;;;;;4929558;28;20589;-86
2023/01/22 11:51:05;;;;;;;9.10;4.30;;;3.70;99.90;;;;;;4910114;28;20276;-87
2023/01/22 11:53:59;;;;;;;8.00;3.75;;;3.70;99.90;;;;;;4916893;28;20030;-87
2023/01/22 11:56:43;;;;;;;8.40;3.85;;;3.70;99.90;;;;;;4912184;28;20035;-87
2023/01/22 11:59:42;;;;;;;7.57;3.93;;;3.70;99.90;;;;;;4877655;28;20561;-87
2023/01/22 12:02:30;;;;;;;8.43;3.60;;;3.70;99.90;;;;;;4951375;28;20045;-86
2023/01/22 12:05:12;;;;;;;8.50;4.00;;;3.70;99.90;;;;;;4921002;28;20838;-88
2023/01/22 12:08:15;;;;;;;7.70;4.10;;;3.70;99.90;;;;;;4933398;28;20080;-86
2023/01/22 12:11:03;;;;;;;8.65;3.63;;;3.70;99.90;;;;;;4887607;28;21027;-86
2023/01/22 12:14:25;;;;;;;7.90;3.70;;;3.70;99.90;;;;;;4926596;28;20388;-87
2023/01/22 12:17:33;;;;;;;8.32;3.60;;;3.70;99.90;;;;;;4817094;29;20033;-86
2023/01/22 12:20:18;;;;;;;7.65;3.60;;;3.70;99.90;;;;;;4823934;29;20639;-86
2023/01/22 12:22:51;;;;;;;8.13;3.65;;;3.80;99.90;;;;;;4925016;28;20495;-87
2023/01/22 12:25:52;;;;;;;8.68;4.15;;;3.70;99.90;;;;;;4925632;28;20031;-86
2023/01/22 12:28:27;;;;;;;8.90;3.90;;;3.80;99.90;;;;;;4900927;28;20058;-87
2023/01/22 12:31:05;;;;;;;8.05;4.00;;;3.80;99.90;;;;;;4894315;28;20030;-86
2023/01/22 12:33:37;;;;;;;8.05;4.00;;;3.80;99.90;;;;;;4924916;28;20586;-86
2023/01/22 12:36:06;;;;;;;8.15;3.92;;;3.80;99.90;;;;;;4933613;28;20033;-86
2023/01/22 12:38:46;;;;;;;8.07;4.03;;;3.80;99.90;;;;;;4931469;28;20438;-87
2023/01/22 12:41:23;;;;;;;9.73;4.27;;;3.80;99.90;;;;;;4922275;28;20046;-87
2023/01/22 12:43:56;;;;;;;8.82;4.13;;;3.90;99.90;;;;;;4946008;28;20091;-87
2023/01/22 12:46:37;;;;;;;8.43;3.70;;;3.80;99.90;;;;;;4877086;28;20683;-86
2023/01/22 12:49:08;;;;;;;8.77;4.38;;;3.90;99.90;;;;;;4922179;28;20034;-86
2023/01/22 12:51:43;;;;;;;8.15;3.72;;;3.90;99.90;;;;;;4941140;28;20506;-86
2023/01/22 12:54:35;;;;;;;7.20;3.73;;;3.90;99.90;;;;;;4936503;28;20038;-87
2023/01/22 12:57:16;;;;;;;8.57;3.72;;;3.90;99.90;;;;;;4910949;28;20382;-86
2023/01/22 12:59:53;;;;;;;7.95;3.75;;;3.90;99.90;;;;;;4917491;28;20034;-86
2023/01/22 13:02:34;;;;;;;8.18;3.80;;;3.90;99.90;;;;;;4901419;28;21908;-86
2023/01/22 13:05:24;;;;;;;9.13;4.30;;;3.90;99.90;;;;;;4914404;28;20024;-86
2023/01/22 13:08:02;;;;;;;8.33;3.70;;;3.90;99.90;;;;;;4895322;28;20690;-86
2023/01/22 13:10:34;;;;;;;7.85;3.88;;;3.90;99.90;;;;;;4911672;28;20122;-86
2023/01/22 13:13:34;;;;;;;7.80;4.00;;;4.00;99.90;;;;;;4937763;28;20027;-87
2023/01/22 13:16:14;;;;;;;8.93;4.07;;;4.00;99.90;;;;;;4923318;28;20352;-87